createdAt,value
2019-01-16T00:00:18.089Z,9.05
2019-01-16T00:01:18.017Z,8.98
2019-01-16T00:02:17.958Z,9.04
2019-01-16T00:03:17.865Z,8.98
2019-01-16T00:04:17.805Z,9.13
2019-01-16T00:05:17.733Z,9.08
2019-01-16T00:06:17.653Z,9.11
2019-01-16T00:07:17.577Z,9.02
2019-01-16T00:08:17.491Z,9.01
2019-01-16T00:09:17.417Z,8.95
2019-01-16T00:10:17.346Z,8.91
2019-01-16T00:11:17.282Z,8.89
2019-01-16T00:12:17.201Z,8.86
2019-01-16T00:13:17.134Z,8.83
2019-01-16T00:14:17.037Z,8.83
2019-01-16T00:15:16.967Z,8.84
2019-01-16T00:16:16.903Z,8.83
2019-01-16T00:17:16.827Z,8.98
2019-01-16T00:18:17.242Z,9.01
2019-01-16T00:19:16.675Z,8.86
2019-01-16T00:20:16.610Z,8.86
2019-01-16T00:21:16.517Z,8.95
2019-01-16T00:22:16.454Z,8.94
2019-01-16T00:23:16.377Z,8.94
2019-01-16T00:24:16.310Z,8.89
2019-01-16T00:25:16.263Z,8.94
2019-01-16T00:26:16.154Z,8.94
2019-01-16T00:27:16.086Z,8.92
2019-01-16T00:28:16.011Z,8.83
2019-01-16T00:29:15.928Z,8.84
2019-01-16T00:30:15.841Z,8.80
2019-01-16T00:31:15.771Z,8.81
2019-01-16T00:32:15.705Z,8.86
2019-01-16T00:33:15.632Z,8.91
2019-01-16T00:34:15.554Z,8.81
2019-01-16T00:35:15.479Z,8.95
2019-01-16T00:36:15.397Z,8.89
2019-01-16T00:37:15.334Z,8.87
2019-01-16T00:38:15.243Z,8.91
2019-01-16T00:39:15.164Z,8.84
2019-01-16T00:40:15.108Z,8.89
2019-01-16T00:41:15.029Z,8.92
2019-01-16T00:42:14.987Z,8.81
2019-01-16T00:43:14.879Z,8.89
2019-01-16T00:44:14.797Z,8.86
2019-01-16T00:45:14.746Z,8.84
2019-01-16T00:46:14.655Z,8.84
2019-01-16T00:47:14.579Z,8.92
2019-01-16T00:48:14.493Z,8.80
2019-01-16T00:49:14.435Z,8.83
2019-01-16T00:50:14.346Z,8.92
2019-01-16T00:51:14.268Z,8.81
2019-01-16T00:52:14.205Z,8.87
2019-01-16T00:53:14.131Z,8.87
2019-01-16T00:54:14.048Z,8.84
2019-01-16T00:55:13.975Z,8.87
2019-01-16T00:56:13.904Z,8.83
2019-01-16T00:57:13.826Z,8.95
2019-01-16T00:58:13.750Z,9.01
2019-01-16T00:59:13.676Z,8.83
2019-01-16T01:00:13.610Z,8.86
2019-01-16T01:01:13.518Z,8.83
2019-01-16T01:02:13.454Z,8.95
2019-01-16T01:03:13.379Z,8.91
2019-01-16T01:04:13.289Z,8.83
2019-01-16T01:05:13.219Z,8.80
2019-01-16T01:06:13.145Z,8.83
2019-01-16T01:07:13.069Z,8.99
2019-01-16T01:08:13.001Z,8.99
2019-01-16T01:09:12.933Z,9.05
2019-01-16T01:10:12.860Z,9.04
2019-01-16T01:11:12.780Z,8.95
2019-01-16T01:12:12.700Z,8.83
2019-01-16T01:13:12.621Z,8.89
2019-01-16T01:14:12.551Z,8.80
2019-01-16T01:15:12.470Z,8.74
2019-01-16T01:16:12.407Z,8.68
2019-01-16T01:17:12.330Z,8.65
2019-01-16T01:18:12.249Z,8.73
2019-01-16T01:19:12.167Z,8.58
2019-01-16T01:20:12.115Z,8.53
2019-01-16T01:21:12.026Z,8.56
2019-01-16T01:22:11.952Z,8.68
2019-01-16T01:23:11.881Z,8.66
2019-01-16T01:24:11.793Z,8.59
2019-01-16T01:25:11.736Z,8.62
2019-01-16T01:26:11.644Z,8.52
2019-01-16T01:27:11.577Z,8.61
2019-01-16T01:28:11.505Z,8.63
2019-01-16T01:29:11.437Z,8.55
2019-01-16T01:30:11.354Z,8.56
2019-01-16T01:31:11.277Z,8.58
2019-01-16T01:32:11.192Z,8.62
2019-01-16T01:33:11.118Z,8.73
2019-01-16T01:34:11.052Z,8.71
2019-01-16T01:35:10.974Z,8.83
2019-01-16T01:36:10.922Z,8.66
2019-01-16T01:37:10.817Z,8.79
2019-01-16T01:38:10.762Z,8.71
2019-01-16T01:39:10.733Z,8.62
2019-01-16T01:40:10.607Z,8.66
2019-01-16T01:41:10.533Z,8.61
2019-01-16T01:42:10.452Z,8.66
2019-01-16T01:43:10.378Z,8.53
2019-01-16T01:44:10.297Z,8.52
2019-01-16T01:45:10.227Z,8.53
2019-01-16T01:46:10.142Z,8.56
2019-01-16T01:47:10.077Z,8.56
2019-01-16T01:48:10.007Z,8.55
2019-01-16T01:49:09.930Z,8.58
2019-01-16T01:50:09.841Z,8.59
2019-01-16T01:51:09.782Z,8.55
2019-01-16T01:52:09.769Z,8.62
2019-01-16T01:53:09.625Z,8.68
2019-01-16T01:54:09.553Z,8.56
2019-01-16T01:55:09.480Z,8.52
2019-01-16T01:56:09.389Z,8.48
2019-01-16T01:57:09.311Z,8.41
2019-01-16T01:58:09.248Z,8.25
2019-01-16T01:59:09.178Z,8.22
2019-01-16T02:00:09.089Z,8.16
2019-01-16T02:01:09.017Z,8.16
2019-01-16T02:02:08.939Z,8.25
2019-01-16T02:03:08.883Z,8.20
2019-01-16T02:04:08.796Z,8.16
2019-01-16T02:05:08.724Z,8.16
2019-01-16T02:06:08.635Z,8.08
2019-01-16T02:07:08.578Z,8.26
2019-01-16T02:08:08.496Z,8.08
2019-01-16T02:09:08.430Z,8.01
2019-01-16T02:10:08.354Z,7.97
2019-01-16T02:11:08.266Z,8.01
2019-01-16T02:12:08.186Z,7.97
2019-01-16T02:13:08.107Z,8.05
2019-01-16T02:14:08.033Z,8.05
2019-01-16T02:15:07.976Z,8.02
2019-01-16T02:16:07.912Z,8.07
2019-01-16T02:17:07.818Z,8.08
2019-01-16T02:18:07.743Z,8.11
2019-01-16T02:19:07.665Z,8.12
2019-01-16T02:20:07.602Z,7.97
2019-01-16T02:21:07.532Z,8.07
2019-01-16T02:22:07.454Z,8.01
2019-01-16T02:23:07.364Z,8.02
2019-01-16T02:24:07.275Z,7.89
2019-01-16T02:25:07.199Z,7.93
2019-01-16T02:26:07.126Z,8.01
2019-01-16T02:27:07.054Z,7.97
2019-01-16T02:28:06.988Z,8.02
2019-01-16T02:29:06.923Z,8.02
2019-01-16T02:30:06.840Z,8.04
2019-01-16T02:31:06.755Z,7.93
2019-01-16T02:32:06.673Z,7.90
2019-01-16T02:33:06.614Z,8.04
2019-01-16T02:34:06.515Z,7.95
2019-01-16T02:35:06.444Z,8.00
2019-01-16T02:36:06.382Z,8.02
2019-01-16T02:37:06.305Z,7.95
2019-01-16T02:38:06.239Z,7.86
2019-01-16T02:39:06.158Z,7.83
2019-01-16T02:40:06.077Z,7.92
2019-01-16T02:41:06.005Z,7.82
2019-01-16T02:42:05.934Z,7.82
2019-01-16T02:43:05.848Z,7.72
2019-01-16T02:44:05.784Z,7.69
2019-01-16T02:45:05.720Z,7.68
2019-01-16T02:46:05.637Z,7.61
2019-01-16T02:47:05.534Z,7.72
2019-01-16T02:48:05.479Z,7.68
2019-01-16T02:49:05.399Z,7.61
2019-01-16T02:50:05.321Z,7.67
2019-01-16T02:51:05.255Z,7.58
2019-01-16T02:52:05.156Z,7.52
2019-01-16T02:53:05.078Z,7.52
2019-01-16T02:54:05.022Z,7.45
2019-01-16T02:55:04.945Z,7.50
2019-01-16T02:56:04.856Z,7.48
2019-01-16T02:57:04.796Z,7.39
2019-01-16T02:58:04.699Z,7.12
2019-01-16T02:59:04.623Z,6.97
2019-01-16T03:00:04.572Z,6.88
2019-01-16T03:01:04.476Z,6.85
2019-01-16T03:02:04.412Z,6.73
2019-01-16T03:03:04.321Z,6.67
2019-01-16T03:04:04.248Z,6.58
2019-01-16T03:05:04.181Z,6.61
2019-01-16T03:06:04.097Z,6.56
2019-01-16T03:07:04.020Z,6.49
2019-01-16T03:08:03.949Z,6.49
2019-01-16T03:09:03.872Z,6.49
2019-01-16T03:10:03.786Z,6.58
2019-01-16T03:11:03.715Z,6.64
2019-01-16T03:12:03.623Z,6.66
2019-01-16T03:13:03.545Z,6.74
2019-01-16T03:14:03.465Z,6.71
2019-01-16T03:15:03.389Z,6.62
2019-01-16T03:16:03.324Z,6.54
2019-01-16T03:17:03.242Z,6.66
2019-01-16T03:18:03.172Z,6.66
2019-01-16T03:19:04.703Z,6.62
2019-01-16T03:20:03.005Z,6.58
2019-01-16T03:21:02.925Z,6.55
2019-01-16T03:22:02.864Z,6.46
2019-01-16T03:23:02.789Z,6.56
2019-01-16T03:24:02.708Z,6.59
2019-01-16T03:25:02.635Z,6.56
2019-01-16T03:26:02.542Z,6.59
2019-01-16T03:27:02.459Z,6.62
2019-01-16T03:28:02.392Z,6.77
2019-01-16T03:29:02.324Z,6.67
2019-01-16T03:30:02.251Z,6.76
2019-01-16T03:31:02.166Z,6.73
2019-01-16T03:32:02.087Z,6.77
2019-01-16T03:33:02.003Z,6.92
2019-01-16T03:34:01.938Z,6.87
2019-01-16T03:35:01.863Z,6.76
2019-01-16T03:36:01.780Z,6.81
2019-01-16T03:37:01.700Z,6.62
2019-01-16T03:38:01.625Z,6.70
2019-01-16T03:39:01.546Z,6.62
2019-01-16T03:40:01.476Z,6.64
2019-01-16T03:41:01.403Z,6.67
2019-01-16T03:42:01.315Z,6.66
2019-01-16T03:43:01.236Z,6.64
2019-01-16T03:44:01.150Z,6.55
2019-01-16T03:45:01.079Z,6.59
2019-01-16T03:46:00.993Z,6.52
2019-01-16T03:47:00.915Z,6.58
2019-01-16T03:48:00.851Z,6.56
2019-01-16T03:49:00.779Z,6.43
2019-01-16T03:50:00.699Z,6.43
2019-01-16T03:51:00.620Z,6.31
2019-01-16T03:52:00.535Z,6.27
2019-01-16T03:53:00.453Z,6.25
2019-01-16T03:54:00.377Z,6.28
2019-01-16T03:55:00.301Z,6.27
2019-01-16T03:56:00.236Z,6.34
2019-01-16T03:57:00.155Z,6.27
2019-01-16T03:58:00.072Z,6.36
2019-01-16T03:58:59.988Z,6.36
2019-01-16T03:59:59.921Z,6.43
2019-01-16T04:00:59.850Z,6.33
2019-01-16T04:01:59.766Z,6.31
2019-01-16T04:02:59.690Z,6.43
2019-01-16T04:03:59.617Z,6.36
2019-01-16T04:04:59.522Z,6.37
2019-01-16T04:05:59.458Z,6.49
2019-01-16T04:06:59.380Z,6.58
2019-01-16T04:07:59.289Z,6.52
2019-01-16T04:08:59.210Z,6.59
2019-01-16T04:09:59.157Z,6.51
2019-01-16T04:10:59.063Z,6.66
2019-01-16T04:11:59.000Z,6.81
2019-01-16T04:12:58.916Z,6.77
2019-01-16T04:13:58.828Z,6.84
2019-01-16T04:14:58.763Z,6.87
2019-01-16T04:15:58.688Z,6.89
2019-01-16T04:16:58.618Z,6.91
2019-01-16T04:17:58.537Z,7.03
2019-01-16T04:18:58.454Z,6.92
2019-01-16T04:19:58.373Z,6.79
2019-01-16T04:20:58.295Z,6.76
2019-01-16T04:21:58.217Z,6.64
2019-01-16T04:22:58.136Z,6.61
2019-01-16T04:23:58.070Z,6.52
2019-01-16T04:24:57.990Z,6.44
2019-01-16T04:25:57.912Z,6.52
2019-01-16T04:26:58.453Z,6.41
2019-01-16T04:27:57.752Z,6.48
2019-01-16T04:28:57.675Z,6.44
2019-01-16T04:29:57.607Z,6.52
2019-01-16T04:30:57.534Z,6.44
2019-01-16T04:31:57.440Z,6.38
2019-01-16T04:32:57.364Z,6.37
2019-01-16T04:33:57.292Z,6.46
2019-01-16T04:34:57.219Z,6.48
2019-01-16T04:35:57.142Z,6.58
2019-01-16T04:36:57.070Z,6.52
2019-01-16T04:37:56.985Z,6.49
2019-01-16T04:38:56.920Z,6.41
2019-01-16T04:39:56.833Z,6.41
2019-01-16T04:40:56.759Z,6.40
2019-01-16T04:41:56.685Z,6.44
2019-01-16T04:42:56.605Z,6.44
2019-01-16T04:43:56.523Z,6.37
2019-01-16T04:44:56.455Z,6.44
2019-01-16T04:45:56.372Z,6.49
2019-01-16T04:46:56.299Z,6.49
2019-01-16T04:47:56.213Z,6.61
2019-01-16T04:48:56.137Z,6.58
2019-01-16T04:49:56.058Z,6.55
2019-01-16T04:50:55.977Z,6.52
2019-01-16T04:51:55.910Z,6.49
2019-01-16T04:52:55.839Z,6.58
2019-01-16T04:53:55.756Z,6.58
2019-01-16T04:54:55.689Z,6.64
2019-01-16T04:55:55.610Z,6.55
2019-01-16T04:56:55.519Z,6.64
2019-01-16T04:57:55.437Z,6.70
2019-01-16T04:58:55.361Z,6.79
2019-01-16T04:59:55.302Z,6.74
2019-01-16T05:00:55.221Z,6.64
2019-01-16T05:01:55.150Z,6.54
2019-01-16T05:02:55.055Z,6.61
2019-01-16T05:03:55.014Z,6.49
2019-01-16T05:04:54.912Z,6.49
2019-01-16T05:05:54.835Z,6.40
2019-01-16T05:06:54.755Z,6.44
2019-01-16T05:07:54.668Z,6.46
2019-01-16T05:08:54.589Z,6.51
2019-01-16T05:09:54.520Z,6.49
2019-01-16T05:10:54.463Z,6.51
2019-01-16T05:11:54.379Z,6.67
2019-01-16T05:12:54.292Z,6.62
2019-01-16T05:13:54.225Z,6.70
2019-01-16T05:14:54.127Z,6.69
2019-01-16T05:15:54.063Z,6.81
2019-01-16T05:16:53.985Z,6.84
2019-01-16T05:17:53.900Z,6.92
2019-01-16T05:18:53.844Z,6.85
2019-01-16T05:19:53.758Z,6.98
2019-01-16T05:20:53.677Z,6.98
2019-01-16T05:21:53.598Z,7.02
2019-01-16T05:22:53.524Z,6.99
2019-01-16T05:23:53.454Z,6.94
2019-01-16T05:24:53.360Z,7.03
2019-01-16T05:25:53.298Z,7.05
2019-01-16T05:26:53.214Z,6.99
2019-01-16T05:27:53.143Z,7.05
2019-01-16T05:28:53.068Z,6.99
2019-01-16T05:29:52.989Z,6.91
2019-01-16T05:30:52.912Z,6.95
2019-01-16T05:31:52.908Z,6.98
2019-01-16T05:32:52.766Z,6.87
2019-01-16T05:33:52.682Z,6.89
2019-01-16T05:34:52.604Z,6.91
2019-01-16T05:35:52.527Z,6.92
2019-01-16T05:36:52.460Z,6.84
2019-01-16T05:37:52.369Z,6.97
2019-01-16T05:38:52.291Z,6.88
2019-01-16T05:39:52.222Z,6.89
2019-01-16T05:40:52.156Z,6.95
2019-01-16T05:41:52.075Z,6.91
2019-01-16T05:42:51.992Z,7.09
2019-01-16T05:43:51.913Z,7.23
2019-01-16T05:44:51.829Z,7.20
2019-01-16T05:45:51.773Z,7.21
2019-01-16T05:46:51.673Z,7.28
2019-01-16T05:47:51.615Z,7.30
2019-01-16T05:48:51.540Z,7.20
2019-01-16T05:49:51.469Z,7.23
2019-01-16T05:50:51.369Z,7.03
2019-01-16T05:51:51.306Z,6.97
2019-01-16T05:52:51.229Z,7.02
2019-01-16T05:53:51.156Z,6.94
2019-01-16T05:54:51.074Z,6.81
2019-01-16T05:55:50.987Z,6.99
2019-01-16T05:56:50.916Z,7.03
2019-01-16T05:57:50.892Z,6.94
2019-01-16T05:58:50.759Z,7.15
2019-01-16T05:59:50.694Z,7.03
2019-01-16T06:00:50.617Z,7.10
2019-01-16T06:01:50.541Z,7.13
2019-01-16T06:02:50.464Z,7.06
2019-01-16T06:03:50.378Z,7.25
2019-01-16T06:04:50.305Z,7.10
2019-01-16T06:05:50.232Z,7.09
2019-01-16T06:06:50.159Z,7.07
2019-01-16T06:07:50.073Z,6.95
2019-01-16T06:08:49.998Z,6.99
2019-01-16T06:09:49.950Z,6.98
2019-01-16T06:10:49.848Z,6.98
2019-01-16T06:11:49.776Z,6.88
2019-01-16T06:12:49.698Z,6.95
2019-01-16T06:13:49.611Z,6.87
2019-01-16T06:14:49.552Z,6.88
2019-01-16T06:15:49.469Z,6.87
2019-01-16T06:16:49.396Z,6.85
2019-01-16T06:17:49.316Z,6.89
2019-01-16T06:18:49.238Z,6.88
2019-01-16T06:19:53.986Z,6.98
2019-01-16T06:20:49.077Z,6.95
2019-01-16T06:21:49.011Z,7.10
2019-01-16T06:22:48.932Z,6.99
2019-01-16T06:23:48.842Z,7.02
2019-01-16T06:24:48.769Z,6.98
2019-01-16T06:25:48.695Z,6.92
2019-01-16T06:26:48.617Z,7.05
2019-01-16T06:27:48.547Z,7.13
2019-01-16T06:28:48.470Z,7.10
2019-01-16T06:29:48.397Z,7.17
2019-01-16T06:30:48.323Z,7.27
2019-01-16T06:31:48.232Z,7.40
2019-01-16T06:32:49.239Z,7.40
2019-01-16T06:33:48.083Z,7.52
2019-01-16T06:34:48.007Z,7.43
2019-01-16T06:35:47.988Z,7.57
2019-01-16T06:36:47.880Z,7.46
2019-01-16T06:37:47.775Z,7.55
2019-01-16T06:38:47.697Z,7.50
2019-01-16T06:39:47.646Z,7.50
2019-01-16T06:40:47.564Z,7.60
2019-01-16T06:41:47.482Z,7.55
2019-01-16T06:42:47.406Z,7.58
2019-01-16T06:43:47.324Z,7.67
2019-01-16T06:44:47.239Z,7.72
2019-01-16T06:45:47.175Z,7.68
2019-01-16T06:46:47.103Z,7.61
2019-01-16T06:47:47.007Z,7.72
2019-01-16T06:48:46.938Z,7.64
2019-01-16T06:49:46.861Z,7.55
2019-01-16T06:50:46.796Z,7.60
2019-01-16T06:51:46.724Z,7.48
2019-01-16T06:52:46.642Z,7.39
2019-01-16T06:53:46.581Z,7.37
2019-01-16T06:54:46.477Z,7.31
2019-01-16T06:55:46.414Z,7.23
2019-01-16T06:56:46.339Z,7.30
2019-01-16T06:57:46.262Z,7.30
2019-01-16T06:58:46.183Z,7.37
2019-01-16T06:59:46.097Z,7.28
2019-01-16T07:00:46.019Z,7.27
2019-01-16T07:01:45.948Z,7.32
2019-01-16T07:02:45.869Z,7.28
2019-01-16T07:03:45.806Z,7.23
2019-01-16T07:04:45.728Z,7.28
2019-01-16T07:05:45.650Z,7.24
2019-01-16T07:06:45.577Z,7.25
2019-01-16T07:07:45.508Z,7.32
2019-01-16T07:08:45.417Z,7.35
2019-01-16T07:09:45.353Z,7.42
2019-01-16T07:10:45.270Z,7.48
2019-01-16T07:11:45.183Z,7.48
2019-01-16T07:12:45.103Z,7.50
2019-01-16T07:13:45.033Z,7.52
2019-01-16T07:14:44.970Z,7.61
2019-01-16T07:15:44.898Z,7.60
2019-01-16T07:16:44.818Z,7.71
2019-01-16T07:17:44.725Z,7.64
2019-01-16T07:18:44.681Z,7.67
2019-01-16T07:19:44.587Z,7.64
2019-01-16T07:20:44.509Z,7.71
2019-01-16T07:21:44.444Z,7.74
2019-01-16T07:22:44.357Z,7.64
2019-01-16T07:23:44.271Z,7.63
2019-01-16T07:24:44.267Z,7.58
2019-01-16T07:25:44.134Z,7.50
2019-01-16T07:26:44.056Z,7.39
2019-01-16T07:27:43.967Z,7.30
2019-01-16T07:28:43.893Z,7.30
2019-01-16T07:29:43.815Z,7.35
2019-01-16T07:30:43.737Z,7.24
2019-01-16T07:31:43.672Z,7.23
2019-01-16T07:32:43.602Z,7.20
2019-01-16T07:33:43.516Z,7.21
2019-01-16T07:34:43.446Z,7.24
2019-01-16T07:35:43.364Z,7.27
2019-01-16T07:36:43.279Z,7.20
2019-01-16T07:37:43.212Z,7.25
2019-01-16T07:38:43.144Z,7.31
2019-01-16T07:39:43.063Z,7.35
2019-01-16T07:40:43.004Z,7.37
2019-01-16T07:41:42.916Z,7.35
2019-01-16T07:42:46.905Z,7.28
2019-01-16T07:43:42.760Z,7.34
2019-01-16T07:44:42.682Z,7.37
2019-01-16T07:45:42.600Z,7.40
2019-01-16T07:46:42.534Z,7.42
2019-01-16T07:47:42.439Z,7.34
2019-01-16T07:48:42.361Z,7.39
2019-01-16T07:49:42.293Z,7.31
2019-01-16T07:50:42.207Z,7.35
2019-01-16T07:51:42.170Z,7.28
2019-01-16T07:52:42.066Z,7.30
2019-01-16T07:53:41.998Z,7.25
2019-01-16T07:54:41.913Z,7.27
2019-01-16T07:55:41.833Z,7.31
2019-01-16T07:56:41.762Z,7.31
2019-01-16T07:57:41.690Z,7.31
2019-01-16T07:58:41.610Z,7.35
2019-01-16T07:59:48.237Z,7.39
2019-01-16T08:00:41.464Z,7.46
2019-01-16T08:01:41.375Z,7.45
2019-01-16T08:02:41.308Z,7.45
2019-01-16T08:03:41.243Z,7.49
2019-01-16T08:04:41.155Z,7.48
2019-01-16T08:05:41.078Z,7.52
2019-01-16T08:06:41.007Z,7.58
2019-01-16T08:07:40.913Z,7.58
2019-01-16T08:08:40.841Z,7.67
2019-01-16T08:09:40.763Z,7.58
2019-01-16T08:10:40.694Z,7.72
2019-01-16T08:11:40.626Z,7.64
2019-01-16T08:12:40.539Z,7.71
2019-01-16T08:13:40.461Z,7.71
2019-01-16T08:14:40.393Z,7.69
2019-01-16T08:15:40.317Z,7.80
2019-01-16T08:16:40.243Z,7.72
2019-01-16T08:17:40.168Z,7.83
2019-01-16T08:18:40.136Z,7.82
2019-01-16T08:19:40.008Z,7.72
2019-01-16T08:20:39.937Z,7.75
2019-01-16T08:21:39.860Z,7.68
2019-01-16T08:22:39.774Z,7.68
2019-01-16T08:23:39.697Z,7.68
2019-01-16T08:24:39.642Z,7.77
2019-01-16T08:25:39.549Z,7.72
2019-01-16T08:26:39.486Z,7.69
2019-01-16T08:27:39.403Z,7.58
2019-01-16T08:28:39.336Z,7.46
2019-01-16T08:29:39.247Z,7.43
2019-01-16T08:30:39.176Z,7.43
2019-01-16T08:31:39.100Z,7.48
2019-01-16T08:32:39.023Z,7.45
2019-01-16T08:33:38.996Z,7.46
2019-01-16T08:34:38.865Z,7.46
2019-01-16T08:35:38.785Z,7.45
2019-01-16T08:36:38.707Z,7.49
2019-01-16T08:37:38.652Z,7.60
2019-01-16T08:38:38.571Z,7.55
2019-01-16T08:39:38.494Z,7.67
2019-01-16T08:40:38.414Z,7.60
2019-01-16T08:41:38.346Z,7.55
2019-01-16T08:42:38.255Z,7.46
2019-01-16T08:43:38.175Z,7.35
2019-01-16T08:44:38.244Z,7.32
2019-01-16T08:45:38.034Z,7.34
2019-01-16T08:46:37.960Z,7.27
2019-01-16T08:47:37.883Z,7.28
2019-01-16T08:48:37.799Z,7.25
2019-01-16T08:49:37.719Z,7.23
2019-01-16T08:50:37.654Z,7.21
2019-01-16T08:51:37.572Z,7.23
2019-01-16T08:52:37.487Z,7.21
2019-01-16T08:53:37.430Z,7.15
2019-01-16T08:54:37.346Z,7.21
2019-01-16T08:55:37.279Z,7.23
2019-01-16T08:56:37.193Z,7.24
2019-01-16T08:57:37.116Z,7.39
2019-01-16T08:58:37.029Z,7.37
2019-01-16T08:59:36.951Z,7.48
2019-01-16T09:00:36.883Z,7.61
2019-01-16T09:01:36.813Z,7.55
2019-01-16T09:02:36.719Z,7.58
2019-01-16T09:03:36.666Z,7.72
2019-01-16T09:04:36.576Z,7.71
2019-01-16T09:05:36.519Z,7.83
2019-01-16T09:06:36.427Z,7.87
2019-01-16T09:07:36.352Z,7.89
2019-01-16T09:08:36.281Z,7.92
2019-01-16T09:09:36.201Z,7.71
2019-01-16T09:10:36.112Z,7.83
2019-01-16T09:11:36.041Z,7.57
2019-01-16T09:12:35.984Z,7.57
2019-01-16T09:13:35.883Z,7.46
2019-01-16T09:14:35.831Z,7.42
2019-01-16T09:15:35.754Z,7.39
2019-01-16T09:16:35.665Z,7.34
2019-01-16T09:17:35.586Z,7.27
2019-01-16T09:18:35.518Z,7.17
2019-01-16T09:19:35.437Z,7.16
2019-01-16T09:20:40.001Z,7.27
2019-01-16T09:21:35.288Z,7.24
2019-01-16T09:22:35.200Z,7.24
2019-01-16T09:23:35.123Z,7.25
2019-01-16T09:24:35.053Z,7.27
2019-01-16T09:25:34.982Z,7.24
2019-01-16T09:26:34.899Z,7.17
2019-01-16T09:27:34.817Z,7.23
2019-01-16T09:28:34.747Z,7.21
2019-01-16T09:29:34.668Z,7.27
2019-01-16T09:30:34.593Z,7.31
2019-01-16T09:31:34.521Z,7.32
2019-01-16T09:32:34.446Z,7.37
2019-01-16T09:33:34.353Z,7.50
2019-01-16T09:34:34.290Z,7.50
2019-01-16T09:35:34.217Z,7.50
2019-01-16T09:36:34.143Z,7.68
2019-01-16T09:37:34.062Z,7.58
2019-01-16T09:38:33.971Z,7.55
2019-01-16T09:39:33.895Z,7.46
2019-01-16T09:40:33.816Z,7.34
2019-01-16T09:41:33.758Z,7.34
2019-01-16T09:42:33.674Z,7.37
2019-01-16T09:43:33.624Z,7.46
2019-01-16T09:44:33.531Z,7.42
2019-01-16T09:45:33.450Z,7.53
2019-01-16T09:46:33.359Z,7.60
2019-01-16T09:47:33.289Z,7.64
2019-01-16T09:48:33.221Z,7.57
2019-01-16T09:49:33.146Z,7.53
2019-01-16T09:50:33.070Z,7.50
2019-01-16T09:51:32.997Z,7.53
2019-01-16T09:52:32.924Z,7.45
2019-01-16T09:53:32.837Z,7.45
2019-01-16T09:54:32.761Z,7.45
2019-01-16T09:55:32.684Z,7.48
2019-01-16T09:56:32.612Z,7.43
2019-01-16T09:57:32.536Z,7.45
2019-01-16T09:58:32.469Z,7.45
2019-01-16T09:59:32.367Z,7.46
2019-01-16T10:00:32.300Z,7.46
2019-01-16T10:01:32.215Z,7.49
2019-01-16T10:02:32.151Z,7.55
2019-01-16T10:03:32.075Z,7.55
2019-01-16T10:04:31.987Z,7.52
2019-01-16T10:05:31.951Z,7.48
2019-01-16T10:06:31.846Z,7.43
2019-01-16T10:07:31.769Z,7.39
2019-01-16T10:08:31.696Z,7.37
2019-01-16T10:09:31.617Z,7.42
2019-01-16T10:10:31.526Z,7.46
2019-01-16T10:11:31.453Z,7.49
2019-01-16T10:12:31.381Z,7.50
2019-01-16T10:13:31.315Z,7.52
2019-01-16T10:14:31.234Z,7.48
2019-01-16T10:15:31.156Z,7.57
2019-01-16T10:16:31.092Z,7.63
2019-01-16T10:17:31.009Z,7.69
2019-01-16T10:18:30.921Z,7.80
2019-01-16T10:19:30.851Z,7.79
2019-01-16T10:20:30.780Z,7.71
2019-01-16T10:21:30.703Z,7.79
2019-01-16T10:22:30.630Z,7.79
2019-01-16T10:23:30.563Z,7.90
2019-01-16T10:24:30.467Z,7.92
2019-01-16T10:25:30.398Z,8.02
2019-01-16T10:26:30.328Z,7.97
2019-01-16T10:27:30.247Z,8.12
2019-01-16T10:28:30.168Z,8.07
2019-01-16T10:29:30.120Z,8.08
2019-01-16T10:30:30.026Z,8.05
2019-01-16T10:31:29.950Z,8.04
2019-01-16T10:32:29.872Z,8.11
2019-01-16T10:33:29.792Z,8.08
2019-01-16T10:34:29.705Z,8.18
2019-01-16T10:35:29.637Z,8.16
2019-01-16T10:36:29.569Z,8.12
2019-01-16T10:37:29.487Z,8.02
2019-01-16T10:38:29.401Z,8.07
2019-01-16T10:39:29.346Z,8.04
2019-01-16T10:40:29.253Z,8.19
2019-01-16T10:41:29.178Z,8.20
2019-01-16T10:42:29.112Z,8.07
2019-01-16T10:43:29.039Z,8.16
2019-01-16T10:44:28.968Z,8.11
2019-01-16T10:45:28.893Z,8.16
2019-01-16T10:46:28.803Z,8.04
2019-01-16T10:47:28.744Z,8.00
2019-01-16T10:48:28.657Z,8.19
2019-01-16T10:49:28.576Z,8.02
2019-01-16T10:50:28.507Z,8.04
2019-01-16T10:51:28.436Z,8.04
2019-01-16T10:52:28.357Z,8.10
2019-01-16T10:53:28.296Z,8.00
2019-01-16T10:54:28.212Z,7.95
2019-01-16T10:55:28.138Z,7.97
2019-01-16T10:56:28.062Z,7.77
2019-01-16T10:57:27.981Z,7.87
2019-01-16T10:58:27.912Z,7.82
2019-01-16T10:59:27.836Z,7.68
2019-01-16T11:00:27.745Z,7.63
2019-01-16T11:01:27.671Z,7.60
2019-01-16T11:02:27.648Z,7.77
2019-01-16T11:03:27.529Z,7.86
2019-01-16T11:04:27.455Z,7.87
2019-01-16T11:05:27.382Z,7.89
2019-01-16T11:06:27.310Z,7.93
2019-01-16T11:07:27.239Z,7.92
2019-01-16T11:08:27.148Z,7.79
2019-01-16T11:09:27.079Z,7.89
2019-01-16T11:10:26.996Z,7.92
2019-01-16T11:11:26.915Z,7.87
2019-01-16T11:12:26.841Z,7.86
2019-01-16T11:13:26.770Z,7.95
2019-01-16T11:14:26.701Z,8.01
2019-01-16T11:15:26.619Z,8.05
2019-01-16T11:16:26.558Z,8.07
2019-01-16T11:17:26.474Z,8.18
2019-01-16T11:18:26.390Z,8.00
2019-01-16T11:19:26.327Z,8.04
2019-01-16T11:20:26.279Z,7.92
2019-01-16T11:21:26.176Z,7.97
2019-01-16T11:22:26.093Z,7.82
2019-01-16T11:23:26.029Z,7.82
2019-01-16T11:24:25.934Z,7.82
2019-01-16T11:25:25.857Z,7.83
2019-01-16T11:26:25.786Z,7.89
2019-01-16T11:27:25.718Z,7.82
2019-01-16T11:28:25.644Z,7.77
2019-01-16T11:29:25.564Z,7.71
2019-01-16T11:30:25.478Z,7.69
2019-01-16T11:31:25.399Z,7.77
2019-01-16T11:32:25.336Z,7.71
2019-01-16T11:33:25.260Z,7.75
2019-01-16T11:34:25.208Z,7.87
2019-01-16T11:35:25.107Z,7.86
2019-01-16T11:36:25.022Z,7.95
2019-01-16T11:37:24.947Z,7.98
2019-01-16T11:38:24.886Z,7.87
2019-01-16T11:39:24.809Z,7.86
2019-01-16T11:40:24.721Z,7.89
2019-01-16T11:41:24.653Z,7.89
2019-01-16T11:42:24.581Z,7.92
2019-01-16T11:43:24.508Z,7.98
2019-01-16T11:44:24.430Z,8.00
2019-01-16T11:45:24.363Z,7.97
2019-01-16T11:46:24.291Z,8.26
2019-01-16T11:47:24.193Z,8.19
2019-01-16T11:48:24.117Z,8.15
2019-01-16T11:49:24.045Z,8.16
2019-01-16T11:50:23.979Z,8.19
2019-01-16T11:51:23.902Z,8.19
2019-01-16T11:52:23.829Z,8.16
2019-01-16T11:53:23.756Z,8.30
2019-01-16T11:54:23.669Z,8.29
2019-01-16T11:55:23.610Z,8.30
2019-01-16T11:56:23.527Z,8.30
2019-01-16T11:57:23.456Z,8.34
2019-01-16T11:58:23.363Z,8.26
2019-01-16T11:59:23.312Z,8.20
2019-01-16T12:00:23.236Z,8.16
2019-01-16T12:01:23.143Z,8.16
2019-01-16T12:02:23.078Z,8.15
2019-01-16T12:03:22.997Z,8.16
2019-01-16T12:04:22.924Z,8.15
2019-01-16T12:05:22.851Z,7.98
2019-01-16T12:06:22.765Z,7.98
2019-01-16T12:07:22.691Z,8.04
2019-01-16T12:08:22.617Z,7.90
2019-01-16T12:09:22.535Z,7.85
2019-01-16T12:10:22.475Z,7.77
2019-01-16T12:11:22.398Z,7.90
2019-01-16T12:12:22.312Z,7.85
2019-01-16T12:13:22.237Z,8.00
2019-01-16T12:14:22.175Z,7.95
2019-01-16T12:15:22.095Z,7.83
2019-01-16T12:16:22.017Z,7.85
2019-01-16T12:17:21.946Z,7.93
2019-01-16T12:18:21.878Z,8.00
2019-01-16T12:19:21.800Z,7.95
2019-01-16T12:20:21.707Z,8.01
2019-01-16T12:21:26.336Z,8.05
2019-01-16T12:22:21.582Z,7.97
2019-01-16T12:23:21.495Z,8.08
2019-01-16T12:24:21.428Z,8.05
2019-01-16T12:25:21.374Z,7.93
2019-01-16T12:26:21.265Z,8.10
2019-01-16T12:27:21.191Z,8.08
2019-01-16T12:28:21.124Z,8.10
2019-01-16T12:29:21.044Z,8.19
2019-01-16T12:30:20.980Z,8.16
2019-01-16T12:31:20.901Z,8.19
2019-01-16T12:32:20.804Z,8.33
2019-01-16T12:33:20.734Z,8.19
2019-01-16T12:34:20.664Z,8.30
2019-01-16T12:35:20.605Z,8.28
2019-01-16T12:36:20.506Z,8.30
2019-01-16T12:37:20.452Z,8.40
2019-01-16T12:38:20.366Z,8.41
2019-01-16T12:39:20.292Z,8.44
2019-01-16T12:40:20.214Z,8.40
2019-01-16T12:41:20.138Z,8.41
2019-01-16T12:42:20.053Z,8.40
2019-01-16T12:43:19.977Z,8.47
2019-01-16T12:44:19.912Z,8.43
2019-01-16T12:45:19.845Z,8.40
2019-01-16T12:46:19.776Z,8.45
2019-01-16T12:47:19.694Z,8.41
2019-01-16T12:48:19.620Z,8.36
2019-01-16T12:49:19.529Z,8.40
2019-01-16T12:50:19.489Z,8.38
2019-01-16T12:51:19.395Z,8.37
2019-01-16T12:52:19.322Z,8.41
2019-01-16T12:53:19.240Z,8.41
2019-01-16T12:54:19.151Z,8.38
2019-01-16T12:55:19.081Z,8.37
2019-01-16T12:56:19.004Z,8.28
2019-01-16T12:57:18.929Z,8.20
2019-01-16T12:58:18.865Z,8.25
2019-01-16T12:59:18.793Z,8.19
2019-01-16T13:00:18.716Z,8.20
2019-01-16T13:01:18.648Z,8.37
2019-01-16T13:02:18.562Z,8.37
2019-01-16T13:03:18.494Z,8.40
2019-01-16T13:04:18.419Z,8.52
2019-01-16T13:05:18.348Z,8.43
2019-01-16T13:06:18.262Z,8.47
2019-01-16T13:07:18.179Z,8.53
2019-01-16T13:08:18.114Z,8.56
2019-01-16T13:09:18.056Z,8.53
2019-01-16T13:10:17.971Z,8.47
2019-01-16T13:11:17.883Z,8.52
2019-01-16T13:12:17.809Z,8.55
2019-01-16T13:13:17.727Z,8.38
2019-01-16T13:14:17.667Z,8.30
2019-01-16T13:15:17.592Z,8.43
2019-01-16T13:16:17.509Z,8.30
2019-01-16T13:17:17.427Z,8.18